createdAt,value
2019-05-07T00:02:04.914Z,93678.84
2019-05-07T00:04:33.601Z,93681.30
2019-05-07T00:07:02.521Z,93656.62
2019-05-07T00:09:32.317Z,93681.97
2019-05-07T00:12:02.744Z,93680.40
2019-05-07T00:14:31.988Z,93677.05
2019-05-07T00:17:04.598Z,93672.91
2019-05-07T00:19:33.327Z,93673.70
2019-05-07T00:22:02.477Z,93678.17
2019-05-07T00:24:33.176Z,93666.10
2019-05-07T00:27:02.781Z,93666.00
2019-05-07T00:29:32.258Z,93678.90
2019-05-07T00:32:03.008Z,93662.44
2019-05-07T00:34:33.080Z,93650.34
2019-05-07T00:37:09.077Z,93672.70
2019-05-07T00:39:45.396Z,93652.19
2019-05-07T00:42:32.695Z,93670.72
2019-05-07T00:45:16.891Z,93669.14
2019-05-07T00:47:39.428Z,93671.28
2019-05-07T00:50:09.857Z,93675.84
2019-05-07T00:52:38.524Z,93673.25
2019-05-07T00:55:07.905Z,93670.79
2019-05-07T00:57:36.568Z,93662.09
2019-05-07T01:00:06.814Z,93656.38
2019-05-07T01:02:35.491Z,93657.47
2019-05-07T01:05:04.272Z,93669.92
2019-05-07T01:07:32.952Z,93656.38
2019-05-07T01:10:02.317Z,93668.62
2019-05-07T01:12:32.901Z,93653.68
2019-05-07T01:15:02.849Z,93664.72
2019-05-07T01:17:33.529Z,93664.72
2019-05-07T01:20:03.050Z,93675.97
2019-05-07T01:22:33.001Z,93670.04
2019-05-07T01:25:02.333Z,93667.71
2019-05-07T01:27:32.122Z,93685.58
2019-05-07T01:30:02.536Z,93678.26
2019-05-07T01:32:45.453Z,93686.91
2019-05-07T01:35:16.280Z,93687.37
2019-05-07T01:37:44.944Z,93675.45
2019-05-07T01:40:13.609Z,93704.41
2019-05-07T01:42:42.489Z,93687.78
2019-05-07T01:45:12.907Z,93660.21
2019-05-07T01:47:42.512Z,93687.64
2019-05-07T01:50:13.363Z,93695.40
2019-05-07T01:52:42.687Z,93692.83
2019-05-07T01:55:12.933Z,93682.02
2019-05-07T01:57:42.183Z,93687.35
2019-05-07T02:00:13.072Z,93691.41
2019-05-07T02:02:43.526Z,93704.31
2019-05-07T02:05:19.629Z,93689.98
2019-05-07T02:07:52.027Z,93705.42
2019-05-07T02:10:24.882Z,93695.47
2019-05-07T02:12:53.548Z,93685.52
2019-05-07T02:15:22.698Z,93694.84
2019-05-07T02:17:52.590Z,93693.41
2019-05-07T02:20:22.537Z,93707.44
2019-05-07T02:22:53.219Z,93705.22
2019-05-07T02:25:22.211Z,93705.22
2019-05-07T02:27:52.799Z,93714.44
2019-05-07T02:30:23.624Z,93709.88
2019-05-07T02:32:53.934Z,93720.45
2019-05-07T02:35:23.648Z,93709.12
2019-05-07T02:37:56.836Z,93716.99
2019-05-07T02:40:28.543Z,93715.78
2019-05-07T02:42:57.198Z,93710.48
2019-05-07T02:45:44.038Z,93715.51
2019-05-07T02:48:13.921Z,93711.41
2019-05-07T02:51:04.106Z,93717.81
2019-05-07T02:53:43.471Z,93724.00
2019-05-07T02:56:13.031Z,93728.17
2019-05-07T02:58:43.427Z,93723.73
2019-05-07T03:01:13.750Z,93725.09
2019-05-07T03:03:44.901Z,93731.42
2019-05-07T03:06:13.694Z,93727.66
2019-05-07T03:08:44.026Z,93736.61
2019-05-07T03:11:14.124Z,93749.97
2019-05-07T03:13:43.522Z,93735.86
2019-05-07T03:16:13.142Z,93749.31
2019-05-07T03:18:43.773Z,93745.72
2019-05-07T03:21:16.991Z,93748.15
2019-05-07T03:23:56.240Z,93741.66
2019-05-07T03:26:26.544Z,93736.95
2019-05-07T03:28:56.781Z,93732.93
2019-05-07T03:31:36.129Z,93731.58
2019-05-07T03:34:25.136Z,93736.77
2019-05-07T03:36:56.327Z,93729.39
2019-05-07T03:39:24.078Z,93745.85
2019-05-07T03:41:53.214Z,93744.05
2019-05-07T03:44:39.896Z,93740.51
2019-05-07T03:47:25.136Z,93747.92
2019-05-07T03:49:54.298Z,93757.09
2019-05-07T03:52:24.494Z,93760.58
2019-05-07T03:54:54.189Z,93770.09
2019-05-07T03:57:23.947Z,93776.42
2019-05-07T03:59:53.533Z,93763.78
2019-05-07T04:02:23.956Z,93777.37
2019-05-07T04:04:53.103Z,93782.36
2019-05-07T04:07:23.218Z,93782.45
2019-05-07T04:09:53.455Z,93781.82
2019-05-07T04:12:23.854Z,93795.27
2019-05-07T04:14:53.562Z,93784.53
2019-05-07T04:17:26.742Z,93788.22
2019-05-07T04:19:53.399Z,93791.14
2019-05-07T04:22:25.207Z,93790.34
2019-05-07T04:25:04.120Z,93799.77
2019-05-07T04:27:48.128Z,93794.14
2019-05-07T04:30:16.785Z,93795.78
2019-05-07T04:32:52.788Z,93797.07
2019-05-07T04:35:33.441Z,93810.14
2019-05-07T04:38:06.154Z,93801.27
2019-05-07T04:40:33.860Z,93806.96
2019-05-07T04:43:02.873Z,93806.39
2019-05-07T04:45:33.757Z,93808.39
2019-05-07T04:48:03.131Z,93803.26
2019-05-07T04:50:42.667Z,93805.09
2019-05-07T04:53:04.015Z,93789.42
2019-05-07T04:55:33.636Z,93809.39
2019-05-07T04:58:04.551Z,93780.55
2019-05-07T05:00:33.575Z,93814.02
2019-05-07T05:03:04.305Z,93805.45
2019-05-07T05:05:33.207Z,93805.22
2019-05-07T05:08:03.911Z,93803.89
2019-05-07T05:10:33.693Z,93814.71
2019-05-07T05:13:03.347Z,93817.72
2019-05-07T05:15:32.384Z,93823.52
2019-05-07T05:18:02.618Z,93820.43
2019-05-07T05:20:45.229Z,93827.48
2019-05-07T05:23:18.466Z,93827.33
2019-05-07T05:25:47.187Z,93824.95
2019-05-07T05:28:15.954Z,93836.20
2019-05-07T05:30:58.578Z,93826.47
2019-05-07T05:33:27.238Z,93830.94
2019-05-07T05:35:55.947Z,93838.57
2019-05-07T05:38:24.813Z,93845.44
2019-05-07T05:40:53.476Z,93849.45
2019-05-07T05:43:31.941Z,93850.24
2019-05-07T05:46:12.055Z,93845.43
2019-05-07T05:48:42.568Z,93849.53
2019-05-07T05:51:27.974Z,93858.53
2019-05-07T05:54:03.983Z,93862.35
2019-05-07T05:56:34.344Z,93803.78
2019-05-07T05:59:12.092Z,93856.24
2019-05-07T06:01:42.726Z,93864.08
2019-05-07T06:04:13.036Z,93879.16
2019-05-07T06:06:46.103Z,93870.72
2019-05-07T06:09:28.387Z,93874.61
2019-05-07T06:12:02.753Z,93872.42
2019-05-07T06:14:33.266Z,93886.95
2019-05-07T06:17:03.591Z,93860.93
2019-05-07T06:19:36.981Z,93880.91
2019-05-07T06:22:10.027Z,93871.17
2019-05-07T06:24:46.550Z,93880.30
2019-05-07T06:27:15.184Z,93892.14
2019-05-07T06:29:43.870Z,93880.41
2019-05-07T06:32:14.290Z,93890.14
2019-05-07T06:34:44.789Z,93888.27
2019-05-07T06:37:13.503Z,93891.71
2019-05-07T06:39:43.877Z,93819.39
2019-05-07T06:42:30.503Z,93888.10
2019-05-07T06:45:17.029Z,93889.95
2019-05-07T06:47:45.937Z,93895.73
2019-05-07T06:50:13.434Z,93895.11
2019-05-07T06:52:42.733Z,93887.20
2019-05-07T06:55:13.102Z,93897.92
2019-05-07T06:57:42.515Z,93891.08
2019-05-07T07:00:18.014Z,93889.91
2019-05-07T07:02:57.453Z,93891.80
2019-05-07T07:05:35.919Z,93894.09
2019-05-07T07:08:23.169Z,93888.43
2019-05-07T07:11:02.785Z,93894.63
2019-05-07T07:13:32.313Z,93876.58
2019-05-07T07:16:03.102Z,93892.70
2019-05-07T07:18:32.431Z,93895.84
2019-05-07T07:21:02.402Z,93905.48
2019-05-07T07:23:32.391Z,93895.23
2019-05-07T07:26:03.213Z,93887.83
2019-05-07T07:28:32.753Z,93904.61
2019-05-07T07:31:13.082Z,93903.14
2019-05-07T07:33:43.765Z,93874.50
2019-05-07T07:36:12.738Z,93902.16
2019-05-07T07:38:42.141Z,93912.34
2019-05-07T07:41:13.109Z,93915.31
2019-05-07T07:43:42.005Z,93918.33
2019-05-07T07:46:13.138Z,93920.28
2019-05-07T07:48:43.531Z,93928.20
2019-05-07T07:51:13.838Z,93926.23
2019-05-07T07:53:42.636Z,93929.66
2019-05-07T07:56:29.501Z,93921.03
2019-05-07T07:59:16.384Z,93924.63
2019-05-07T08:01:46.803Z,93924.59
2019-05-07T08:04:15.837Z,93925.71
2019-05-07T08:09:33.401Z,93874.47
2019-05-07T08:12:02.789Z,93935.84
2019-05-07T08:14:32.505Z,93942.00
2019-05-07T08:17:02.987Z,93942.37
2019-05-07T08:19:32.862Z,93938.44
2019-05-07T08:22:02.891Z,93943.88
2019-05-07T08:24:32.302Z,93948.69
2019-05-07T08:27:02.379Z,93949.06
2019-05-07T08:29:33.033Z,93945.59
2019-05-07T08:32:22.273Z,93961.66
2019-05-07T08:34:52.315Z,93957.20
2019-05-07T08:37:24.239Z,93954.84
2019-05-07T08:39:52.022Z,93953.01
2019-05-07T08:42:24.098Z,93959.06
2019-05-07T08:45:11.867Z,93958.67
2019-05-07T08:47:44.296Z,93950.28
2019-05-07T08:50:13.281Z,93954.73
2019-05-07T08:52:42.147Z,93950.30
2019-05-07T08:55:12.576Z,93954.24
2019-05-07T08:57:42.026Z,93958.19
2019-05-07T09:00:12.573Z,93951.89
2019-05-07T09:02:42.085Z,93953.02
2019-05-07T09:05:12.056Z,93951.75
2019-05-07T09:07:42.549Z,93951.41
2019-05-07T09:10:12.634Z,93954.48
2019-05-07T09:12:42.856Z,93954.23
2019-05-07T09:15:12.426Z,93959.44
2019-05-07T09:17:42.318Z,93957.11
2019-05-07T09:20:12.714Z,93959.90
2019-05-07T09:22:42.774Z,93970.41
2019-05-07T09:25:13.014Z,93968.20
2019-05-07T09:27:46.557Z,93963.94
2019-05-07T09:30:28.638Z,93964.31
2019-05-07T09:32:59.171Z,93967.52
2019-05-07T09:35:44.484Z,93959.41
2019-05-07T09:38:13.172Z,93977.22
2019-05-07T09:40:42.230Z,93976.86
2019-05-07T09:43:11.766Z,93976.84
2019-05-07T09:45:42.099Z,93975.36
2019-05-07T09:48:13.432Z,93980.91
2019-05-07T09:50:42.925Z,93945.35
2019-05-07T09:53:12.710Z,93982.77
2019-05-07T09:55:42.516Z,93998.70
2019-05-07T09:58:12.535Z,93992.17
2019-05-07T10:00:42.426Z,93992.91
2019-05-07T10:03:12.702Z,93997.61
2019-05-07T10:05:42.721Z,94004.14
2019-05-07T10:08:12.965Z,93996.38
2019-05-07T10:10:43.174Z,93996.92
2019-05-07T10:18:22.835Z,93990.89
2019-05-07T10:20:52.260Z,94000.87
2019-05-07T10:33:52.512Z,93994.13
2019-05-07T10:36:22.847Z,93999.02
2019-05-07T10:38:52.096Z,94002.59
2019-05-07T10:41:22.365Z,94005.47
2019-05-07T10:43:51.977Z,94011.86
2019-05-07T10:46:38.740Z,93978.16
2019-05-07T10:49:09.232Z,94003.91
2019-05-07T10:51:38.025Z,94003.22
2019-05-07T10:54:06.788Z,94003.02
2019-05-07T10:56:35.603Z,94001.89
2019-05-07T10:59:04.473Z,94012.28
2019-05-07T11:01:35.828Z,94017.33
2019-05-07T11:04:04.491Z,94027.33
2019-05-07T11:06:33.275Z,94020.87
2019-05-07T11:09:02.126Z,94027.33
2019-05-07T11:11:31.874Z,94007.32
2019-05-07T11:14:01.951Z,94034.36
2019-05-07T11:16:32.924Z,94031.84
2019-05-07T11:19:02.041Z,94035.87
2019-05-07T11:21:32.989Z,94043.14
2019-05-07T11:24:03.237Z,94046.86
2019-05-07T11:28:57.596Z,94032.35
2019-05-07T11:31:26.333Z,94050.11
2019-05-07T11:33:55.226Z,94054.89
2019-05-07T11:36:23.985Z,94068.77
2019-05-07T11:38:52.806Z,94035.42
2019-05-07T11:41:23.083Z,94071.41
2019-05-07T11:43:56.191Z,94070.41
2019-05-07T11:46:26.465Z,94076.41
2019-05-07T11:48:59.930Z,94068.39
2019-05-07T11:51:36.276Z,94078.63
2019-05-07T11:54:09.468Z,94077.14
2019-05-07T11:56:38.510Z,94075.83
2019-05-07T11:59:07.783Z,94075.89
2019-05-07T12:01:44.500Z,94086.13
2019-05-07T12:04:09.218Z,94071.80
2019-05-07T12:06:38.380Z,94078.58
2019-05-07T12:09:08.479Z,94065.27
2019-05-07T12:11:37.515Z,94084.09
2019-05-07T12:14:06.223Z,94087.91
2019-05-07T12:16:35.031Z,94092.03
2019-05-07T12:19:03.832Z,94080.80
2019-05-07T12:21:33.145Z,94081.61
2019-05-07T12:24:02.244Z,94085.79
2019-05-07T12:26:32.746Z,94085.38
2019-05-07T12:29:01.749Z,94097.33
2019-05-07T12:31:48.642Z,94092.16
2019-05-07T12:34:22.901Z,94092.83
2019-05-07T12:36:52.512Z,94073.59
2019-05-07T12:39:22.062Z,94088.52
2019-05-07T12:41:52.487Z,94083.75
2019-05-07T12:44:22.231Z,94090.39
2019-05-07T12:46:52.452Z,94105.20
2019-05-07T12:49:22.108Z,94084.38
2019-05-07T12:51:52.656Z,94102.49
2019-05-07T12:54:22.937Z,94095.94
2019-05-07T12:56:52.087Z,94108.00
2019-05-07T12:59:21.840Z,94077.68
2019-05-07T13:02:17.803Z,94110.84
2019-05-07T13:04:36.515Z,94114.16
2019-05-07T13:07:13.617Z,94105.23
2019-05-07T13:09:42.839Z,94121.09
2019-05-07T13:12:11.734Z,94116.03
2019-05-07T13:14:40.433Z,94116.54
2019-05-07T13:17:09.223Z,94117.24
2019-05-07T13:19:39.267Z,94120.89
2019-05-07T13:22:08.148Z,94131.16
2019-05-07T13:24:36.863Z,94129.16
2019-05-07T13:27:05.772Z,94135.33
2019-05-07T13:29:34.452Z,94133.71
2019-05-07T13:32:03.927Z,94142.38
2019-05-07T13:34:34.141Z,94132.36
2019-05-07T13:37:13.709Z,94134.73
2019-05-07T13:39:46.865Z,94136.18
2019-05-07T13:42:33.574Z,94146.75
2019-05-07T13:45:04.125Z,94150.20
2019-05-07T13:47:34.696Z,94133.48
2019-05-07T13:50:03.711Z,94146.59
2019-05-07T13:52:33.279Z,94148.30
2019-05-07T13:55:02.197Z,94150.86
2019-05-07T13:57:32.272Z,94145.63
2019-05-07T14:00:02.363Z,94153.52
2019-05-07T14:02:33.061Z,94155.59
2019-05-07T14:05:01.878Z,94152.30
2019-05-07T14:07:32.357Z,94154.92
2019-05-07T14:10:02.097Z,94154.31
2019-05-07T14:12:33.514Z,94161.28
2019-05-07T14:15:02.344Z,94171.11
2019-05-07T14:17:31.053Z,94166.09
2019-05-07T14:20:01.842Z,94166.22
2019-05-07T14:22:31.817Z,94173.61
2019-05-07T14:25:00.746Z,94173.81
2019-05-07T14:27:29.544Z,94177.37
2019-05-07T14:29:58.612Z,94178.27
2019-05-07T14:32:28.901Z,94190.25
2019-05-07T14:35:05.584Z,94184.36
2019-05-07T14:37:39.082Z,94189.23
2019-05-07T14:40:07.973Z,94170.62
2019-05-07T14:42:38.551Z,94196.62
2019-05-07T14:45:07.856Z,94195.81
2019-05-07T14:47:36.896Z,94201.28
2019-05-07T14:50:07.134Z,94202.58
2019-05-07T14:52:36.375Z,94205.77
2019-05-07T14:55:09.246Z,94206.77
2019-05-07T14:57:37.933Z,94203.93
2019-05-07T15:00:07.814Z,94209.19
2019-05-07T15:02:36.502Z,94211.36
2019-05-07T15:05:09.047Z,94196.47
2019-05-07T15:07:37.956Z,94209.19
2019-05-07T15:10:07.535Z,94207.44
2019-05-07T15:12:36.272Z,94200.77
2019-05-07T15:15:06.957Z,94214.77
2019-05-07T15:17:37.298Z,94214.72
2019-05-07T15:20:06.072Z,94206.33
2019-05-07T15:22:49.180Z,94216.21
2019-05-07T15:25:12.697Z,94219.84
2019-05-07T15:27:42.148Z,94217.69
2019-05-07T15:30:11.324Z,94215.50
2019-05-07T15:32:42.646Z,94219.08
2019-05-07T15:35:12.620Z,94219.56
2019-05-07T15:37:42.691Z,94225.52
2019-05-07T15:40:12.016Z,94223.09
2019-05-07T15:42:42.106Z,94228.22
2019-05-07T15:45:12.502Z,94201.00
2019-05-07T15:47:48.695Z,94221.63
2019-05-07T15:50:17.980Z,94217.56
2019-05-07T15:52:58.217Z,94230.87
2019-05-07T15:55:18.631Z,94237.52
2019-05-07T15:57:47.729Z,94235.17
2019-05-07T16:00:18.842Z,94243.30
2019-05-07T16:02:49.090Z,94238.30
2019-05-07T16:05:19.252Z,94239.66
2019-05-07T16:07:49.337Z,94242.22
2019-05-07T16:10:18.161Z,94244.45
2019-05-07T16:12:47.252Z,94248.16
2019-05-07T16:15:16.043Z,94258.73
2019-05-07T16:17:58.363Z,94267.13
2019-05-07T16:20:27.041Z,94262.27
2019-05-07T16:23:14.302Z,94258.08
2019-05-07T16:25:33.311Z,94263.22
2019-05-07T16:28:04.885Z,94268.56
2019-05-07T16:30:32.703Z,94264.17
2019-05-07T16:33:02.081Z,94269.93
2019-05-07T16:35:32.007Z,94270.52
2019-05-07T16:38:00.940Z,94259.83
2019-05-07T16:40:29.701Z,94277.74
2019-05-07T16:42:58.408Z,94283.31
2019-05-07T16:45:27.047Z,94280.71
2019-05-07T16:47:55.731Z,94278.08
2019-05-07T16:50:24.517Z,94281.94
2019-05-07T16:52:53.217Z,94280.11
2019-05-07T16:55:23.463Z,94285.63
2019-05-07T16:57:56.729Z,94289.89
2019-05-07T17:00:35.956Z,94290.15
2019-05-07T17:03:06.622Z,94293.81
2019-05-07T17:05:35.317Z,94295.66
2019-05-07T17:08:05.665Z,94281.08
2019-05-07T17:10:34.327Z,94309.94
2019-05-07T17:13:03.034Z,94304.51
2019-05-07T17:15:33.239Z,94300.92
2019-05-07T17:18:02.784Z,94304.94
2019-05-07T17:20:32.827Z,94306.53
2019-05-07T17:23:02.938Z,94306.05
2019-05-07T17:25:38.062Z,94313.73
2019-05-07T17:28:08.896Z,94306.34
2019-05-07T17:30:38.270Z,94314.81
2019-05-07T17:33:07.369Z,94324.75
2019-05-07T17:35:36.027Z,94324.56
2019-05-07T17:38:09.423Z,94323.75
2019-05-07T17:40:35.331Z,94326.77
2019-05-07T17:43:04.305Z,94320.07
2019-05-07T17:45:33.140Z,94325.94
2019-05-07T17:48:03.133Z,94332.05
2019-05-07T17:50:46.293Z,94329.29
2019-05-07T17:53:15.062Z,94324.66
2019-05-07T17:55:43.737Z,94321.15
2019-05-07T17:58:12.988Z,94333.06
2019-05-07T18:00:43.810Z,94341.54
2019-05-07T18:03:32.277Z,94341.69
2019-05-07T18:06:02.208Z,94342.08
2019-05-07T18:08:32.577Z,94337.13
2019-05-07T18:11:02.330Z,94343.75
2019-05-07T18:13:32.452Z,94346.67
2019-05-07T18:16:03.123Z,94352.19
2019-05-07T18:18:32.833Z,94347.85
2019-05-07T18:21:02.279Z,94352.45
2019-05-07T18:23:32.211Z,94348.54
2019-05-07T18:26:01.129Z,94354.03
2019-05-07T18:28:29.809Z,94362.63
2019-05-07T18:30:59.084Z,94357.34
2019-05-07T18:33:29.319Z,94361.02
2019-05-07T18:35:57.994Z,94355.04
2019-05-07T18:38:26.685Z,94328.97
2019-05-07T18:40:55.382Z,94360.88
2019-05-07T18:43:24.078Z,94356.14
2019-05-07T18:45:52.805Z,94355.52
2019-05-07T18:48:22.446Z,94353.55
2019-05-07T18:50:52.210Z,94353.91
2019-05-07T18:53:22.664Z,94358.51
2019-05-07T18:55:51.780Z,94361.14
2019-05-07T18:58:22.464Z,94351.26
2019-05-07T19:00:55.706Z,94355.05
2019-05-07T19:03:25.426Z,94372.05
2019-05-07T19:05:54.681Z,94371.05
2019-05-07T19:08:23.374Z,94380.34
2019-05-07T19:10:52.335Z,94374.44
2019-05-07T19:13:22.201Z,94371.66
2019-05-07T19:15:52.982Z,94373.30
2019-05-07T19:18:22.828Z,94382.72
2019-05-07T19:20:52.932Z,94382.98
2019-05-07T19:23:22.432Z,94377.90
2019-05-07T19:25:52.313Z,94369.63
2019-05-07T19:28:22.476Z,94373.58
2019-05-07T19:30:52.839Z,94372.95
2019-05-07T19:33:26.731Z,94376.40
2019-05-07T19:35:52.952Z,94380.61
2019-05-07T19:38:21.942Z,94377.20
2019-05-07T19:40:52.620Z,94378.77
2019-05-07T19:43:21.013Z,94373.77
2019-05-07T19:45:49.689Z,94378.09
2019-05-07T19:48:18.345Z,94381.82
2019-05-07T19:50:47.016Z,94380.27
2019-05-07T19:53:15.692Z,94393.55
2019-05-07T19:56:02.157Z,94386.77
2019-05-07T19:58:32.692Z,94390.49
2019-05-07T20:01:02.605Z,94388.02
2019-05-07T20:03:33.244Z,94379.37
2019-05-07T20:06:02.500Z,94385.81
2019-05-07T20:08:32.384Z,94388.70
2019-05-07T20:11:03.128Z,94350.83
2019-05-07T20:13:32.442Z,94377.47
2019-05-07T20:16:02.932Z,94383.22
2019-05-07T20:18:33.094Z,94383.77
2019-05-07T20:21:02.713Z,94378.28
2019-05-07T20:23:32.667Z,94375.43
2019-05-07T20:26:02.982Z,94376.93
2019-05-07T20:28:32.558Z,94386.62
2019-05-07T20:31:01.611Z,94385.81
2019-05-07T20:33:32.546Z,94384.17
2019-05-07T20:36:02.609Z,94390.00
2019-05-07T20:38:34.538Z,94385.31
2019-05-07T20:41:03.431Z,94383.63
2019-05-07T20:43:32.744Z,94387.83
2019-05-07T20:46:02.664Z,94378.83
2019-05-07T20:48:32.533Z,94382.13
2019-05-07T20:51:01.312Z,94381.68
2019-05-07T20:53:47.916Z,94381.59
2019-05-07T20:56:18.171Z,94380.52
2019-05-07T20:58:46.830Z,94377.95
2019-05-07T21:01:15.506Z,94378.97
2019-05-07T21:03:44.165Z,94377.19
2019-05-07T21:06:12.830Z,94376.59
2019-05-07T21:08:42.810Z,94381.68
2019-05-07T21:11:12.045Z,94388.56
2019-05-07T21:13:42.608Z,94380.86
2019-05-07T21:16:12.649Z,94381.27
2019-05-07T21:18:42.138Z,94383.23
2019-05-07T21:21:12.545Z,94386.97
2019-05-07T21:23:43.369Z,94388.33
2019-05-07T21:26:13.034Z,94389.94
2019-05-07T21:28:43.260Z,94377.74
2019-05-07T21:31:12.236Z,94384.41
2019-05-07T21:33:42.932Z,94387.21
2019-05-07T21:36:12.065Z,94385.13
2019-05-07T21:38:42.579Z,94387.89
2019-05-07T21:41:12.885Z,94385.53
2019-05-07T21:43:44.228Z,94380.94
2019-05-07T21:46:12.865Z,94391.09
2019-05-07T21:48:41.645Z,94387.37
2019-05-07T21:51:12.149Z,94380.59
2019-05-07T21:53:58.935Z,94381.89
2019-05-07T21:56:29.172Z,94394.91
2019-05-07T21:58:57.022Z,94389.50
2019-05-07T22:01:27.359Z,94390.86
2019-05-07T22:03:57.610Z,94390.09
2019-05-07T22:06:26.297Z,94388.69
2019-05-07T22:08:54.999Z,94386.38
2019-05-07T22:11:23.723Z,94394.58
2019-05-07T22:13:54.726Z,94392.41
2019-05-07T22:16:22.790Z,94392.99
2019-05-07T22:18:52.155Z,94383.74
2019-05-07T22:21:21.038Z,94396.95
2019-05-07T22:23:52.054Z,94396.95
2019-05-07T22:26:24.897Z,94395.80
2019-05-07T22:28:53.824Z,94400.59
2019-05-07T22:31:22.527Z,94387.58
2019-05-07T22:33:59.423Z,94402.14
2019-05-07T22:36:28.174Z,94393.82
2019-05-07T22:38:56.824Z,94395.66
2019-05-07T22:41:25.513Z,94393.90
2019-05-07T22:43:54.169Z,94389.07
2019-05-07T22:46:22.891Z,94394.49
2019-05-07T22:48:51.580Z,94388.00
2019-05-07T22:51:20.260Z,94390.71
2019-05-07T22:53:48.936Z,94396.94
2019-05-07T22:56:30.414Z,94401.01
2019-05-07T22:58:52.675Z,94407.09
2019-05-07T23:01:22.628Z,94397.80
2019-05-07T23:03:51.830Z,94401.33
2019-05-07T23:06:23.130Z,94404.30
2019-05-07T23:08:52.914Z,94402.11
2019-05-07T23:11:22.832Z,94395.34
2019-05-07T23:13:54.436Z,94394.41
2019-05-07T23:16:23.146Z,94392.96
2019-05-07T23:18:52.012Z,94391.37
2019-05-07T23:21:24.383Z,94390.49
2019-05-07T23:23:52.752Z,94388.12
2019-05-07T23:26:23.354Z,94382.77
2019-05-07T23:28:52.104Z,94386.83
2019-05-07T23:31:22.852Z,94387.30
2019-05-07T23:33:52.375Z,94386.20
2019-05-07T23:36:22.440Z,94383.97
2019-05-07T23:38:52.071Z,94382.36
2019-05-07T23:41:22.645Z,94391.37
2019-05-07T23:44:09.140Z,94388.99
2019-05-07T23:46:37.806Z,94393.94
2019-05-07T23:49:06.523Z,94391.03
2019-05-07T23:51:35.382Z,94393.53
2019-05-07T23:54:04.078Z,94396.16
2019-05-07T23:56:33.025Z,94391.41
2019-05-07T23:59:01.966Z,94393.87
